Time;durP1;ratioP1;P1;durP2;ratioP2;P2;SDS_P1;SDS_P2;PMS_P1;PMS_P2;Temp;Humidity;BMP_temperature;BMP_pressure;BME280_temperature;BME280_humidity;BME280_pressure;Samples;Min_cycle;Max_cycle;Signal;HPM_P1;HPM_P2
2022/06/28 00:00:47;;;;;;;;;;;14.60;95.60;;;;;;2047728;28;20083;-94
2022/06/28 00:02:06;;;;;;;2.97;2.25;;;14.60;95.50;;;;;;2041137;29;19919;-95
2022/06/28 00:03:25;;;;;;;4.22;2.80;;;14.60;95.50;;;;;;2043620;29;20044;-95
2022/06/28 00:04:45;;;;;;;4.07;2.50;;;14.60;95.50;;;;;;2038058;29;20111;-96
2022/06/28 00:06:04;;;;;;;3.95;2.47;;;14.60;95.50;;;;;;2032352;29;20044;-96
2022/06/28 00:07:23;;;;;;;5.22;2.72;;;14.60;95.60;;;;;;2040390;29;20406;-95
2022/06/28 00:08:43;;;;;;;3.47;2.75;;;14.60;95.60;;;;;;2047803;29;20040;-94
2022/06/28 00:10:03;;;;;;;3.65;2.65;;;14.60;95.60;;;;;;2059399;28;20039;-94
2022/06/28 00:11:22;;;;;;;3.88;2.88;;;14.60;95.60;;;;;;2054892;29;20031;-94
2022/06/28 00:12:44;;;;;;;5.00;2.75;;;14.60;95.60;;;;;;2051705;29;20075;-95
2022/06/28 00:16:04;;;;;;;3.80;2.70;;;14.60;95.60;;;;;;2055899;29;20039;-95
2022/06/28 00:17:21;;;;;;;3.55;2.47;;;14.60;95.70;;;;;;2063822;28;20078;-95
2022/06/28 00:18:41;;;;;;;4.03;2.70;;;14.50;95.60;;;;;;2053962;29;20039;-96
2022/06/28 00:20:01;;;;;;;3.30;2.58;;;14.60;95.70;;;;;;2040422;29;20040;-94
2022/06/28 00:21:20;;;;;;;3.95;2.60;;;14.50;95.60;;;;;;2049899;29;20044;-93
2022/06/28 00:22:40;;;;;;;4.97;2.97;;;14.60;95.70;;;;;;2046522;29;20040;-92
2022/06/28 00:23:59;;;;;;;4.72;3.17;;;14.60;95.70;;;;;;2048309;29;20067;-95
2022/06/28 00:25:18;;;;;;;3.20;2.55;;;14.60;95.70;;;;;;2049774;29;20524;-96
2022/06/28 00:26:38;;;;;;;3.63;2.90;;;14.60;95.70;;;;;;2060110;28;20042;-93
2022/06/28 00:27:57;;;;;;;4.65;3.30;;;14.50;95.70;;;;;;2048616;29;20044;-94
2022/06/28 00:29:17;;;;;;;4.28;2.97;;;14.50;95.70;;;;;;2057762;28;20047;-95
2022/06/28 00:30:36;;;;;;;4.10;2.90;;;14.60;95.70;;;;;;2061585;28;20047;-94
2022/06/28 00:31:56;;;;;;;5.65;3.30;;;14.50;95.70;;;;;;2048204;29;20071;-95
2022/06/28 00:33:15;;;;;;;3.85;2.83;;;14.50;95.80;;;;;;2056480;28;20046;-95
2022/06/28 00:34:35;;;;;;;4.07;2.90;;;14.50;95.80;;;;;;2053769;29;20039;-95
2022/06/28 00:35:54;;;;;;;4.70;3.25;;;14.50;95.80;;;;;;2051193;28;20043;-95
2022/06/28 00:37:14;;;;;;;4.07;3.05;;;14.50;95.80;;;;;;2051191;29;20040;-95
2022/06/28 00:38:34;;;;;;;4.47;3.00;;;14.50;95.80;;;;;;2051024;29;20044;-94
2022/06/28 00:39:54;;;;;;;4.05;3.20;;;14.50;95.80;;;;;;2046404;29;20084;-95
2022/06/28 00:41:13;;;;;;;3.85;3.03;;;14.50;95.80;;;;;;2059887;28;20031;-94
2022/06/28 00:42:32;;;;;;;4.65;2.95;;;14.50;95.80;;;;;;2053591;29;20040;-95
2022/06/28 00:43:52;;;;;;;4.60;3.15;;;14.60;95.80;;;;;;2048120;29;20031;-94
2022/06/28 00:45:12;;;;;;;5.50;3.33;;;14.60;95.80;;;;;;2046278;29;20035;-96
2022/06/28 00:46:35;;;;;;;5.03;3.25;;;14.50;95.80;;;;;;2043844;29;20057;-95
2022/06/28 00:47:55;;;;;;;4.43;3.10;;;14.50;95.80;;;;;;2056981;28;20055;-96
2022/06/28 00:49:15;;;;;;;4.85;3.10;;;14.50;95.80;;;;;;2056701;28;20050;-95
2022/06/28 00:50:36;;;;;;;3.63;2.90;;;14.60;95.80;;;;;;2057407;28;20035;-84
2022/06/28 00:51:57;;;;;;;4.10;3.10;;;14.50;95.80;;;;;;2052937;29;20035;-88
2022/06/28 00:53:18;;;;;;;3.45;2.80;;;14.50;95.80;;;;;;2053977;28;20028;-91
2022/06/28 00:54:38;;;;;;;4.10;2.90;;;14.50;95.80;;;;;;2060275;28;20043;-95
2022/06/28 00:55:57;;;;;;;4.07;2.85;;;14.50;95.80;;;;;;2060247;28;20031;-94
2022/06/28 00:57:16;;;;;;;4.75;3.00;;;14.50;95.80;;;;;;2056208;29;20039;-95
2022/06/28 00:58:35;;;;;;;4.78;3.20;;;14.50;95.80;;;;;;2053944;29;20047;-94
2022/06/28 00:59:56;;;;;;;4.72;3.30;;;14.50;95.80;;;;;;2056771;29;20047;-95
2022/06/28 01:01:16;;;;;;;5.15;3.60;;;14.50;95.90;;;;;;2057598;28;20052;-94
2022/06/28 01:02:35;;;;;;;4.60;3.30;;;14.40;95.90;;;;;;2064750;28;20046;-95
2022/06/28 01:03:55;;;;;;;4.15;2.97;;;14.40;95.90;;;;;;2061583;28;20043;-96
2022/06/28 01:05:14;;;;;;;4.22;3.10;;;14.40;95.90;;;;;;2058797;28;20039;-94
2022/06/28 01:06:33;;;;;;;5.13;3.00;;;14.40;95.90;;;;;;2050272;29;20035;-95
2022/06/28 01:07:53;;;;;;;4.07;3.15;;;14.50;95.90;;;;;;2053836;28;20039;-94
2022/06/28 01:09:13;;;;;;;4.15;3.15;;;14.50;95.90;;;;;;2052568;28;20036;-95
2022/06/28 01:10:34;;;;;;;5.68;3.58;;;14.40;95.80;;;;;;2050844;29;20039;-95
2022/06/28 01:11:53;;;;;;;;;;;14.40;95.90;;;;;;2059279;28;20054;-96
2022/06/28 01:13:13;;;;;;;3.92;2.83;;;14.40;95.80;;;;;;2054054;29;19922;-95
2022/06/28 01:14:32;;;;;;;5.13;3.15;;;14.40;95.80;;;;;;2058864;28;20035;-94
2022/06/28 01:15:53;;;;;;;4.57;3.47;;;14.40;95.80;;;;;;2054026;29;20118;-95
2022/06/28 01:17:12;;;;;;;3.90;3.13;;;14.30;95.80;;;;;;2054262;28;20036;-95
2022/06/28 01:18:32;;;;;;;5.63;3.25;;;14.30;95.80;;;;;;2045947;29;20052;-94
2022/06/28 01:19:51;;;;;;;4.40;3.63;;;14.30;95.80;;;;;;2036003;29;20024;-95
2022/06/28 01:21:14;;;;;;;5.18;3.60;;;14.30;95.80;;;;;;2048084;29;20035;-96
2022/06/28 01:22:45;;;;;;;5.20;3.65;;;14.30;95.80;;;;;;2051769;29;20122;-95
2022/06/28 01:24:05;;;;;;;;;;;14.30;95.80;;;;;;2055270;29;20126;-95
2022/06/28 01:25:24;;;;;;;4.72;3.25;;;14.30;95.80;;;;;;2052167;29;19906;-95
2022/06/28 01:26:46;;;;;;;5.75;3.60;;;14.30;95.80;;;;;;2042151;29;20040;-95
2022/06/28 01:28:06;;;;;;;5.07;3.58;;;14.20;95.80;;;;;;2053819;29;20047;-94
2022/06/28 01:29:27;;;;;;;5.57;3.80;;;14.20;95.90;;;;;;2045914;29;20047;-94
2022/06/28 01:30:47;;;;;;;;;;;14.20;95.90;;;;;;2050518;29;20067;-94
2022/06/28 01:32:07;;;;;;;4.00;2.78;;;14.20;95.90;;;;;;2051987;29;19914;-94
2022/06/28 01:33:27;;;;;;;4.70;3.53;;;14.20;95.90;;;;;;2065429;28;20038;-93
2022/06/28 01:34:46;;;;;;;4.90;3.47;;;14.20;95.90;;;;;;2060891;28;20031;-95
2022/06/28 01:36:07;;;;;;;5.00;3.72;;;14.20;95.90;;;;;;2059414;28;20557;-95
2022/06/28 01:37:27;;;;;;;;;;;14.20;95.90;;;;;;2058337;28;20039;-95
2022/06/28 01:38:47;;;;;;;4.27;3.17;;;14.10;95.90;;;;;;2065992;28;19910;-95
2022/06/28 01:40:07;;;;;;;4.65;3.35;;;14.10;95.90;;;;;;2053480;29;20263;-94
2022/06/28 01:41:33;;;;;;;5.25;3.65;;;14.10;95.90;;;;;;2055014;28;20063;-95
2022/06/28 01:42:52;;;;;;;4.63;3.47;;;14.10;95.90;;;;;;2050829;29;20073;-95
2022/06/28 01:44:12;;;;;;;5.05;3.70;;;14.10;95.90;;;;;;2051572;28;20058;-95
2022/06/28 01:45:31;;;;;;;5.10;3.78;;;14.10;96.00;;;;;;2050500;29;20036;-94
2022/06/28 01:46:50;;;;;;;5.03;3.95;;;14.10;96.00;;;;;;2054353;28;20125;-94
2022/06/28 01:48:09;;;;;;;5.50;4.10;;;14.10;96.00;;;;;;2050343;29;20545;-95
2022/06/28 01:49:29;;;;;;;4.93;3.92;;;14.10;96.00;;;;;;2055565;28;20047;-94
2022/06/28 01:50:50;;;;;;;7.80;4.10;;;14.10;96.00;;;;;;2042517;29;20044;-96
2022/06/28 01:52:09;;;;;;;;;;;14.10;96.00;;;;;;2049218;28;20035;-94
2022/06/28 01:53:29;;;;;;;4.43;3.45;;;14.10;96.00;;;;;;2050071;29;19978;-95
2022/06/28 01:54:48;;;;;;;4.93;3.75;;;14.10;96.00;;;;;;2049686;29;20039;-95
2022/06/28 01:56:07;;;;;;;4.72;3.97;;;14.10;96.00;;;;;;2044936;29;20206;-95
2022/06/28 01:57:27;;;;;;;5.20;3.75;;;14.10;96.00;;;;;;2053661;28;20066;-93
2022/06/28 01:58:47;;;;;;;4.93;3.97;;;14.00;95.90;;;;;;2057896;28;20050;-96
2022/06/28 02:00:08;;;;;;;5.00;4.18;;;14.10;96.00;;;;;;2058121;28;20034;-96
2022/06/28 02:01:27;;;;;;;5.10;4.30;;;14.10;96.00;;;;;;2060380;28;20034;-94
2022/06/28 02:02:47;;;;;;;5.55;4.68;;;14.10;96.00;;;;;;2046135;28;20122;-95
2022/06/28 02:04:27;;;;;;;6.95;4.75;;;14.10;96.00;;;;;;2051350;29;20063;-94
2022/06/28 02:05:46;;;;;;;6.10;4.47;;;14.10;96.00;;;;;;2063752;28;20043;-95
2022/06/28 02:07:05;;;;;;;5.25;4.28;;;14.00;96.00;;;;;;2048194;29;20075;-95
2022/06/28 02:08:25;;;;;;;5.78;4.55;;;14.00;96.00;;;;;;2048149;29;20077;-95
2022/06/28 02:09:45;;;;;;;4.93;4.28;;;14.00;96.00;;;;;;2040035;29;20534;-96
2022/06/28 02:11:05;;;;;;;5.80;4.72;;;14.00;96.00;;;;;;2036141;29;20055;-95
2022/06/28 02:12:28;;;;;;;5.78;4.75;;;14.00;96.00;;;;;;2039733;29;20546;-94
2022/06/28 02:13:47;;;;;;;6.13;4.95;;;14.00;96.00;;;;;;2050789;29;20075;-96
2022/06/28 02:15:09;;;;;;;5.32;4.75;;;14.00;96.00;;;;;;2050466;29;20031;-95
2022/06/28 02:16:28;;;;;;;;;;;14.00;96.00;;;;;;2045338;29;20043;-95
2022/06/28 02:17:47;;;;;;;5.55;4.22;;;14.00;96.00;;;;;;2047369;28;19915;-96
2022/06/28 02:19:06;;;;;;;6.28;4.40;;;13.90;96.00;;;;;;2050188;29;20158;-95
2022/06/28 02:20:26;;;;;;;5.78;4.63;;;13.90;96.00;;;;;;2049774;29;20043;-95
2022/06/28 02:21:45;;;;;;;5.82;4.90;;;13.90;96.10;;;;;;2049815;29;20035;-95
2022/06/28 02:23:04;;;;;;;5.72;4.88;;;13.90;96.10;;;;;;2051510;28;20043;-95
2022/06/28 02:24:23;;;;;;;6.28;4.85;;;13.90;96.10;;;;;;2057165;28;20043;-95
2022/06/28 02:25:43;;;;;;;5.88;4.68;;;13.90;96.20;;;;;;2061192;28;20545;-95
2022/06/28 02:27:02;;;;;;;6.43;5.00;;;13.90;96.10;;;;;;2060485;28;20038;-96
2022/06/28 02:28:21;;;;;;;5.20;4.53;;;13.90;96.10;;;;;;2050486;29;20474;-95
2022/06/28 02:29:41;;;;;;;6.88;5.00;;;13.90;96.10;;;;;;2052867;29;20036;-95
2022/06/28 02:31:00;;;;;;;6.13;5.07;;;13.90;96.20;;;;;;2051055;28;20051;-94
2022/06/28 02:32:19;;;;;;;5.50;4.60;;;13.90;96.20;;;;;;2044577;29;20538;-95
2022/06/28 02:33:40;;;;;;;7.30;4.93;;;13.90;96.20;;;;;;2044025;29;20047;-95
2022/06/28 02:41:33;;;;;;;5.75;4.10;;;13.80;96.10;;;;;;2061329;28;20038;-95
2022/06/28 02:42:55;;;;;;;5.80;4.75;;;13.80;96.10;;;;;;2053389;29;20035;-95
2022/06/28 02:44:16;;;;;;;5.15;4.35;;;13.80;96.10;;;;;;2052020;28;20091;-93
2022/06/28 02:45:35;;;;;;;6.10;4.43;;;13.80;96.10;;;;;;2055239;29;20043;-94
2022/06/28 02:46:55;;;;;;;6.03;4.63;;;13.80;96.10;;;;;;2069086;28;20047;-94
2022/06/28 02:48:14;;;;;;;5.72;4.63;;;13.80;96.10;;;;;;2068649;28;20039;-95
2022/06/28 02:49:33;;;;;;;6.45;4.88;;;13.80;96.10;;;;;;2060187;28;20486;-95
2022/06/28 02:50:52;;;;;;;6.32;4.80;;;13.80;96.10;;;;;;2048650;29;20047;-94
2022/06/28 02:52:11;;;;;;;6.82;5.28;;;13.80;96.10;;;;;;2048889;29;20043;-94
2022/06/28 02:53:30;;;;;;;7.25;5.03;;;13.80;96.20;;;;;;2044845;29;20067;-95
2022/06/28 02:54:50;;;;;;;5.82;4.80;;;13.80;96.20;;;;;;2048716;29;20039;-95
2022/06/28 02:56:09;;;;;;;7.05;5.10;;;13.80;96.20;;;;;;2056882;28;20103;-95
2022/06/28 02:57:28;;;;;;;6.03;4.88;;;13.80;96.20;;;;;;2052621;29;20040;-94
2022/06/28 02:58:48;;;;;;;6.50;4.60;;;13.80;96.50;;;;;;2051717;28;20043;-94
2022/06/28 03:00:11;;;;;;;5.88;4.60;;;13.80;96.20;;;;;;2044409;29;20036;-94
2022/06/28 03:01:31;;;;;;;6.05;4.88;;;13.80;96.20;;;;;;2049295;29;20466;-95
2022/06/28 03:02:51;;;;;;;5.47;4.57;;;13.80;96.20;;;;;;2044853;29;20040;-93
2022/06/28 03:04:10;;;;;;;5.97;4.82;;;13.80;96.30;;;;;;2054310;28;20039;-94
2022/06/28 03:05:29;;;;;;;5.82;4.65;;;13.80;96.20;;;;;;2055442;28;20039;-94
2022/06/28 03:06:48;;;;;;;6.72;5.45;;;13.80;96.20;;;;;;2040713;29;20103;-95
2022/06/28 03:08:08;;;;;;;6.20;4.78;;;13.80;96.20;;;;;;2053988;28;20070;-95
2022/06/28 03:09:27;;;;;;;5.75;5.07;;;13.80;96.30;;;;;;2047057;29;20115;-95
2022/06/28 03:10:47;;;;;;;6.03;5.00;;;13.80;96.20;;;;;;2045697;29;20086;-94
2022/06/28 03:12:06;;;;;;;5.72;4.93;;;13.80;96.30;;;;;;2045216;29;20044;-95
2022/06/28 03:13:26;;;;;;;5.72;4.72;;;13.80;96.30;;;;;;2043285;29;20031;-95
2022/06/28 03:14:45;;;;;;;6.80;5.13;;;13.80;96.30;;;;;;2049324;28;20063;-95
2022/06/28 03:16:05;;;;;;;6.72;4.82;;;13.80;96.30;;;;;;2048924;29;20051;-95
2022/06/28 03:17:25;;;;;;;6.10;5.00;;;13.80;96.30;;;;;;2044056;29;20043;-95
2022/06/28 03:18:44;;;;;;;5.95;5.05;;;13.80;96.30;;;;;;2054404;28;20039;-96
2022/06/28 03:20:04;;;;;;;5.68;4.90;;;13.80;96.30;;;;;;2048991;29;20039;-95
2022/06/28 03:21:23;;;;;;;6.03;4.68;;;13.70;96.30;;;;;;2053652;28;20032;-95
2022/06/28 03:22:42;;;;;;;6.53;4.95;;;13.80;96.30;;;;;;2049872;29;20039;-95
2022/06/28 03:24:02;;;;;;;6.68;5.28;;;13.80;96.30;;;;;;2049665;29;20043;-94
2022/06/28 03:25:21;;;;;;;6.40;5.13;;;13.80;96.30;;;;;;2053281;28;20100;-94
2022/06/28 03:26:42;;;;;;;5.85;4.88;;;13.80;96.30;;;;;;2041741;29;20035;-94
2022/06/28 03:28:03;;;;;;;6.50;5.00;;;13.80;96.30;;;;;;2049880;29;20069;-95
2022/06/28 03:29:23;;;;;;;6.30;5.07;;;13.80;96.30;;;;;;2051196;29;20039;-94
2022/06/28 03:30:42;;;;;;;5.82;4.82;;;13.80;96.30;;;;;;2038478;29;20048;-80
2022/06/28 03:32:02;;;;;;;6.03;5.07;;;13.80;96.30;;;;;;2058141;28;20019;-93
2022/06/28 03:33:21;;;;;;;5.95;4.95;;;13.80;96.30;;;;;;2056556;28;20054;-83
2022/06/28 03:34:40;;;;;;;5.80;4.68;;;13.70;96.30;;;;;;2052156;29;20035;-95
2022/06/28 03:36:01;;;;;;;5.90;5.07;;;13.80;96.30;;;;;;2044159;29;20043;-94
2022/06/28 03:37:20;;;;;;;;;;;13.80;96.30;;;;;;2057325;28;20523;-95
2022/06/28 03:38:39;;;;;;;6.22;3.97;;;13.80;96.20;;;;;;2061610;28;19905;-95
2022/06/28 03:39:59;;;;;;;5.80;4.32;;;13.80;96.20;;;;;;2052321;29;20043;-96
2022/06/28 03:41:24;;;;;;;6.35;4.22;;;13.80;96.20;;;;;;2053583;29;20043;-94
2022/06/28 03:42:43;;;;;;;5.32;4.30;;;13.80;96.20;;;;;;2049915;29;20035;-95
2022/06/28 03:44:03;;;;;;;5.55;4.53;;;13.80;96.20;;;;;;2056393;28;20114;-95
2022/06/28 03:45:23;;;;;;;5.43;4.50;;;13.80;96.20;;;;;;2044052;29;20047;-94
2022/06/28 03:46:43;;;;;;;5.43;4.07;;;13.70;96.20;;;;;;2048940;29;20039;-95
2022/06/28 03:48:02;;;;;;;6.63;4.55;;;13.80;96.20;;;;;;2044408;29;20036;-95
2022/06/28 03:49:22;;;;;;;5.70;4.43;;;13.80;96.20;;;;;;2050138;29;20047;-94
2022/06/28 03:50:41;;;;;;;6.03;4.50;;;13.80;96.20;;;;;;2039536;29;20072;-95
2022/06/28 03:52:01;;;;;;;5.10;4.20;;;13.80;96.20;;;;;;2038744;29;20040;-95
2022/06/28 03:53:20;;;;;;;4.95;4.10;;;13.80;96.20;;;;;;2046063;29;20130;-95
2022/06/28 03:54:40;;;;;;;6.53;4.38;;;13.80;96.20;;;;;;2033310;29;20044;-95
2022/06/28 03:55:59;;;;;;;6.13;4.18;;;13.80;96.20;;;;;;2040629;29;20044;-95
2022/06/28 03:57:19;;;;;;;4.80;3.90;;;13.80;96.20;;;;;;2041300;29;20040;-94
2022/06/28 03:58:38;;;;;;;4.95;4.15;;;13.80;96.20;;;;;;2046375;29;20039;-94
2022/06/28 03:59:59;;;;;;;5.50;3.80;;;13.90;96.20;;;;;;2058186;28;20062;-94
2022/06/28 04:01:19;;;;;;;5.32;3.92;;;13.90;96.20;;;;;;2044942;29;20044;-94
2022/06/28 04:02:38;;;;;;;6.20;4.30;;;13.80;96.20;;;;;;2055095;28;20050;-94
2022/06/28 04:03:57;;;;;;;5.25;4.00;;;13.80;96.20;;;;;;2043659;29;20031;-95
2022/06/28 04:05:16;;;;;;;5.82;4.05;;;13.80;96.20;;;;;;2048032;29;20040;-95
2022/06/28 04:06:36;;;;;;;5.47;4.20;;;13.80;96.20;;;;;;2052746;28;20039;-95
2022/06/28 04:07:55;;;;;;;5.03;3.90;;;13.90;96.20;;;;;;2055542;28;20537;-95
2022/06/28 04:09:14;;;;;;;4.43;3.60;;;13.80;96.50;;;;;;2043371;29;20039;-95
2022/06/28 04:10:35;;;;;;;4.45;3.55;;;13.90;96.20;;;;;;2057402;28;20043;-93
2022/06/28 04:11:54;;;;;;;5.13;3.95;;;13.90;96.20;;;;;;2052125;28;20055;-95
2022/06/28 04:13:13;;;;;;;5.65;3.95;;;14.00;96.20;;;;;;2048373;29;20078;-94
2022/06/28 04:14:33;;;;;;;4.60;3.42;;;14.00;96.20;;;;;;2043445;29;20502;-95
2022/06/28 04:15:52;;;;;;;5.10;3.75;;;14.00;96.20;;;;;;2054675;28;20490;-94
2022/06/28 04:17:12;;;;;;;4.80;3.90;;;14.00;96.10;;;;;;2047550;29;20048;-96
2022/06/28 04:18:31;;;;;;;4.85;3.70;;;14.10;96.10;;;;;;2048470;29;20490;-95
2022/06/28 04:19:50;;;;;;;4.78;3.63;;;14.10;96.10;;;;;;2040912;29;20043;-95
2022/06/28 04:21:13;;;;;;;5.28;3.75;;;14.20;96.10;;;;;;2046205;29;20039;-95
2022/06/28 04:22:33;;;;;;;4.60;3.58;;;14.20;96.00;;;;;;2049009;29;20032;-96
2022/06/28 04:23:52;;;;;;;5.60;3.78;;;14.30;96.00;;;;;;2048542;29;20047;-95
2022/06/28 04:25:11;;;;;;;5.30;3.65;;;14.30;95.90;;;;;;2055718;28;20035;-95
2022/06/28 04:26:30;;;;;;;4.82;3.55;;;14.30;95.90;;;;;;2063287;28;20031;-94
2022/06/28 04:27:56;;;;;;;4.93;3.60;;;14.40;95.90;;;;;;2062660;28;20071;-95
2022/06/28 04:29:15;;;;;;;6.57;3.65;;;14.40;95.80;;;;;;2045815;29;20100;-95
2022/06/28 04:30:35;;;;;;;5.15;3.50;;;14.40;95.80;;;;;;2049001;29;20044;-93
2022/06/28 04:31:54;;;;;;;4.85;3.58;;;14.40;95.80;;;;;;2043841;29;20071;-95
2022/06/28 04:33:14;;;;;;;4.05;3.10;;;14.50;95.80;;;;;;2040976;29;20055;-94
2022/06/28 04:34:33;;;;;;;5.85;3.55;;;14.50;95.80;;;;;;2044745;29;20043;-96
2022/06/28 04:35:52;;;;;;;4.50;3.38;;;14.50;95.70;;;;;;2049502;29;20031;-96
2022/06/28 04:37:12;;;;;;;4.82;3.47;;;14.50;95.70;;;;;;2055252;28;20031;-94
2022/06/28 04:38:31;;;;;;;5.22;3.20;;;14.50;95.60;;;;;;2060948;28;20067;-95
2022/06/28 04:39:51;;;;;;;4.68;2.95;;;14.50;95.60;;;;;;2051694;29;20585;-95
2022/06/28 04:41:10;;;;;;;4.03;2.88;;;14.60;95.60;;;;;;2048731;29;20067;-95
2022/06/28 04:42:30;;;;;;;5.03;3.50;;;14.60;95.60;;;;;;2053460;28;20046;-95
2022/06/28 04:43:51;;;;;;;4.65;3.15;;;14.60;95.60;;;;;;2056181;28;20039;-94
2022/06/28 04:45:10;;;;;;;6.75;3.60;;;14.60;95.60;;;;;;2047919;29;20047;-95
2022/06/28 04:46:29;;;;;;;5.80;3.20;;;14.60;95.60;;;;;;2045483;29;20032;-96
2022/06/28 04:47:48;;;;;;;4.75;3.50;;;14.60;95.60;;;;;;2046242;29;20422;-94
2022/06/28 04:49:08;;;;;;;5.63;3.40;;;14.60;95.60;;;;;;2046727;29;20040;-94
2022/06/28 04:50:27;;;;;;;5.78;3.20;;;14.70;95.60;;;;;;2052886;29;20043;-95
2022/06/28 04:51:47;;;;;;;4.65;3.20;;;14.70;95.60;;;;;;2060999;28;20043;-93
2022/06/28 04:53:06;;;;;;;6.18;3.00;;;14.70;95.60;;;;;;2049694;29;20039;-94
2022/06/28 04:54:25;;;;;;;4.32;3.30;;;14.70;95.60;;;;;;2049874;29;20039;-95
2022/06/28 04:55:44;;;;;;;4.15;3.00;;;14.70;95.60;;;;;;2040572;29;20048;-92
2022/06/28 04:57:04;;;;;;;4.20;3.10;;;14.80;95.60;;;;;;2051071;28;20047;-95
2022/06/28 04:58:24;;;;;;;4.32;3.03;;;14.80;95.60;;;;;;2052127;29;20049;-94
2022/06/28 04:59:43;;;;;;;3.83;3.03;;;14.90;95.50;;;;;;2056577;28;20046;-95
2022/06/28 05:01:03;;;;;;;4.63;2.90;;;14.90;95.50;;;;;;2043993;29;20059;-96
2022/06/28 05:02:22;;;;;;;3.67;2.75;;;15.00;95.50;;;;;;2056922;28;20058;-95
2022/06/28 05:03:42;;;;;;;4.15;3.10;;;15.10;95.40;;;;;;2046388;29;20052;-96
2022/06/28 05:05:01;;;;;;;4.90;2.90;;;15.10;95.30;;;;;;2056665;28;20042;-95
2022/06/28 05:06:20;;;;;;;3.80;2.75;;;15.20;95.20;;;;;;2057393;28;20043;-94
2022/06/28 05:07:40;;;;;;;4.45;2.78;;;15.40;95.20;;;;;;2049283;29;20035;-96
2022/06/28 05:08:59;;;;;;;4.40;2.70;;;15.40;95.10;;;;;;2045556;28;20039;-95
2022/06/28 05:10:19;;;;;;;3.92;3.03;;;15.50;95.00;;;;;;2057927;28;20046;-95
2022/06/28 05:11:39;;;;;;;3.55;2.55;;;15.60;94.90;;;;;;2049588;29;20521;-96
2022/06/28 05:12:59;;;;;;;5.72;2.97;;;15.70;94.80;;;;;;2057970;28;20059;-96
2022/06/28 05:14:18;;;;;;;3.67;2.60;;;15.80;94.70;;;;;;2049602;29;20142;-95
2022/06/28 05:15:39;;;;;;;4.20;2.38;;;15.90;94.60;;;;;;2062927;28;20532;-95
2022/06/28 05:16:59;;;;;;;4.00;2.65;;;16.00;94.50;;;;;;2048497;29;20051;-95
2022/06/28 05:18:18;;;;;;;4.57;2.60;;;16.10;94.40;;;;;;2058108;28;20035;-95
2022/06/28 05:19:37;;;;;;;4.70;2.75;;;16.20;94.30;;;;;;2049661;29;20040;-95
2022/06/28 05:20:57;;;;;;;3.95;2.58;;;16.20;94.20;;;;;;2048789;29;20074;-95
2022/06/28 05:22:16;;;;;;;4.35;2.17;;;16.30;94.20;;;;;;2044731;29;20027;-96
2022/06/28 05:23:37;;;;;;;3.92;2.40;;;16.40;94.10;;;;;;2042653;29;20070;-95
2022/06/28 05:24:56;;;;;;;;;;;16.40;94.10;;;;;;2043347;29;20036;-96
2022/06/28 05:26:18;;;;;;;3.42;2.20;;;16.50;94.00;;;;;;2049619;29;19910;-96
2022/06/28 05:27:37;;;;;;;3.53;2.10;;;16.50;93.90;;;;;;2052565;29;20047;-96
2022/06/28 05:28:56;;;;;;;3.45;2.10;;;16.60;93.80;;;;;;2056986;28;20118;-95
2022/06/28 05:30:15;;;;;;;3.63;2.30;;;16.70;93.80;;;;;;2060669;28;20035;-96
2022/06/28 05:31:35;;;;;;;3.75;2.17;;;16.70;93.70;;;;;;2050947;29;20122;-94
2022/06/28 05:32:55;;;;;;;3.65;2.42;;;16.80;93.70;;;;;;2052502;28;20062;-96
2022/06/28 05:34:14;;;;;;;3.88;1.90;;;16.80;93.90;;;;;;2058484;28;20090;-96
2022/06/28 05:35:34;;;;;;;2.83;1.95;;;16.90;93.50;;;;;;2059088;28;20063;-96
2022/06/28 05:36:54;;;;;;;3.33;2.00;;;16.90;93.40;;;;;;2062142;28;20043;-96
2022/06/28 05:38:13;;;;;;;4.28;2.15;;;17.00;93.40;;;;;;2058571;28;20030;-96
2022/06/28 05:39:32;;;;;;;4.43;2.00;;;17.00;93.30;;;;;;2058558;28;20051;-96
2022/06/28 05:40:52;;;;;;;3.88;2.08;;;17.10;93.20;;;;;;2053076;28;20027;-95
2022/06/28 05:42:12;;;;;;;3.88;2.20;;;17.10;93.10;;;;;;2065272;28;20034;-95
2022/06/28 05:43:31;;;;;;;3.35;2.10;;;17.20;93.10;;;;;;2051167;28;20071;-95
2022/06/28 05:44:50;;;;;;;3.22;1.88;;;17.20;93.00;;;;;;2054814;28;20043;-95
2022/06/28 05:46:09;;;;;;;3.40;1.90;;;17.20;92.90;;;;;;2050178;29;20031;-94
2022/06/28 05:47:29;;;;;;;3.47;1.95;;;17.30;92.90;;;;;;2053581;28;20035;-96
2022/06/28 05:48:48;;;;;;;5.07;1.73;;;17.30;92.80;;;;;;2061189;28;20035;-94
2022/06/28 05:50:08;;;;;;;3.72;1.80;;;17.30;92.80;;;;;;2047184;29;20051;-96
2022/06/28 05:51:29;;;;;;;4.40;1.85;;;17.30;92.70;;;;;;2055970;28;20050;-95
2022/06/28 05:52:50;;;;;;;3.80;1.67;;;17.40;92.70;;;;;;2051398;29;20039;-96
2022/06/28 05:54:09;;;;;;;;;;;17.50;92.70;;;;;;2049753;29;20039;-88
2022/06/28 05:55:30;;;;;;;2.90;1.40;;;17.50;92.60;;;;;;2056457;28;19910;-95
2022/06/28 05:56:49;;;;;;;3.10;1.40;;;17.50;92.60;;;;;;2044266;29;20107;-95
2022/06/28 05:58:08;;;;;;;4.78;1.70;;;17.50;92.50;;;;;;2052611;28;20114;-96
2022/06/28 05:59:28;;;;;;;5.95;1.90;;;17.50;92.40;;;;;;2055975;28;20050;-95
2022/06/28 06:00:48;;;;;;;2.85;1.65;;;17.60;92.40;;;;;;2046150;29;20035;-94
2022/06/28 06:02:07;;;;;;;3.63;1.73;;;17.60;92.30;;;;;;2045641;29;20043;-95
2022/06/28 06:03:26;;;;;;;4.68;1.80;;;17.60;92.20;;;;;;2072558;28;20253;-93
2022/06/28 06:04:46;;;;;;;3.88;1.50;;;17.60;92.20;;;;;;2059801;28;20051;-95
2022/06/28 06:06:05;;;;;;;3.83;1.75;;;17.70;92.10;;;;;;2046739;29;20130;-95
2022/06/28 06:07:25;;;;;;;3.22;1.60;;;17.60;92.10;;;;;;2047411;29;20569;-95
2022/06/28 06:08:44;;;;;;;3.75;1.77;;;17.70;92.10;;;;;;2042272;29;20043;-91
2022/06/28 06:10:04;;;;;;;4.78;1.67;;;17.80;92.00;;;;;;2049453;28;20043;-94
2022/06/28 06:11:23;;;;;;;2.63;1.67;;;17.80;92.00;;;;;;2056450;28;20049;-94
2022/06/28 06:12:42;;;;;;;3.65;1.70;;;17.90;91.90;;;;;;2066209;28;20038;-95
2022/06/28 06:14:01;;;;;;;2.85;1.80;;;17.90;91.80;;;;;;2072647;28;20038;-94
2022/06/28 06:15:21;;;;;;;3.38;1.80;;;18.00;91.70;;;;;;2066389;28;20023;-94
2022/06/28 06:16:41;;;;;;;5.50;2.00;;;18.00;91.70;;;;;;2066299;28;20087;-79
2022/06/28 06:18:00;;;;;;;5.75;2.10;;;18.10;91.70;;;;;;2051758;29;20024;-78
2022/06/28 06:19:19;;;;;;;4.32;1.80;;;18.10;91.60;;;;;;2062535;28;20027;-94
2022/06/28 06:20:38;;;;;;;5.60;2.08;;;18.10;91.50;;;;;;2043063;29;20071;-94
2022/06/28 06:21:58;;;;;;;4.25;1.88;;;18.20;91.50;;;;;;2054408;28;20035;-95
2022/06/28 06:23:17;;;;;;;3.97;1.65;;;18.20;91.70;;;;;;2057628;28;20043;-95
2022/06/28 06:24:37;;;;;;;3.70;1.80;;;18.20;91.40;;;;;;2054850;28;20516;-94
2022/06/28 06:25:56;;;;;;;3.47;1.85;;;18.20;91.30;;;;;;2063256;28;20085;-94
2022/06/28 06:27:18;;;;;;;3.88;2.08;;;18.30;91.30;;;;;;2066892;28;20141;-94
2022/06/28 06:28:37;;;;;;;4.53;1.98;;;18.30;91.30;;;;;;2041195;29;20075;-93
2022/06/28 06:29:57;;;;;;;3.53;1.92;;;18.40;91.20;;;;;;2058096;28;20595;-94
2022/06/28 06:31:16;;;;;;;5.33;2.30;;;18.40;91.20;;;;;;2054732;28;20051;-95
2022/06/28 06:32:36;;;;;;;5.40;2.10;;;18.40;91.10;;;;;;2039566;29;20263;-94
2022/06/28 06:33:55;;;;;;;5.45;2.40;;;18.40;91.10;;;;;;2057440;28;20046;-95
2022/06/28 06:35:14;;;;;;;4.55;2.17;;;18.40;91.00;;;;;;2046826;29;20114;-95
2022/06/28 06:36:35;;;;;;;5.50;2.25;;;18.50;91.00;;;;;;2058378;28;20039;-93
2022/06/28 06:38:00;;;;;;;5.07;2.13;;;18.50;90.90;;;;;;2048392;29;20039;-95
2022/06/28 06:39:19;;;;;;;4.63;2.08;;;18.50;90.90;;;;;;2051120;28;20040;-95
2022/06/28 06:40:38;;;;;;;3.42;1.77;;;18.60;90.90;;;;;;2049344;29;20036;-96
2022/06/28 06:41:58;;;;;;;4.32;1.88;;;18.70;90.80;;;;;;2043427;29;20040;-96
2022/06/28 06:43:17;;;;;;;5.72;1.90;;;18.70;90.80;;;;;;2049448;28;20469;-94
2022/06/28 06:44:36;;;;;;;6.30;1.70;;;18.70;90.70;;;;;;2065238;28;20058;-95
2022/06/28 06:45:56;;;;;;;3.67;1.77;;;18.80;90.60;;;;;;2065929;28;20513;-95
2022/06/28 06:47:15;;;;;;;3.50;1.50;;;18.80;90.60;;;;;;2059976;28;20043;-96
2022/06/28 06:48:34;;;;;;;5.60;1.83;;;18.80;90.50;;;;;;2058405;28;20034;-95
2022/06/28 06:49:54;;;;;;;4.65;1.70;;;18.90;90.50;;;;;;2043820;29;20435;-95
2022/06/28 06:51:13;;;;;;;5.20;1.70;;;19.00;90.50;;;;;;2041230;28;20043;-95
2022/06/28 06:52:32;;;;;;;5.05;1.80;;;19.00;90.40;;;;;;2053736;28;20058;-94
2022/06/28 06:53:52;;;;;;;5.43;1.73;;;19.00;90.30;;;;;;2041612;29;20039;-95
2022/06/28 06:55:11;;;;;;;4.10;1.70;;;19.10;90.30;;;;;;2073485;28;20018;-95
2022/06/28 06:56:32;;;;;;;4.95;1.65;;;19.10;90.20;;;;;;2066800;28;20051;-95
2022/06/28 06:57:51;;;;;;;5.75;1.60;;;19.30;90.10;;;;;;2069109;28;20019;-84
2022/06/28 06:59:14;;;;;;;4.70;1.77;;;19.30;90.10;;;;;;2060930;28;20026;-94
2022/06/28 07:00:34;;;;;;;5.50;2.15;;;19.30;90.00;;;;;;2066642;28;20042;-96
2022/06/28 07:01:53;;;;;;;4.53;2.13;;;19.40;90.00;;;;;;2055973;28;20047;-96
2022/06/28 07:03:13;;;;;;;4.72;1.70;;;19.30;90.00;;;;;;2062679;28;20070;-96
2022/06/28 07:04:32;;;;;;;5.18;1.90;;;19.40;89.90;;;;;;2061003;28;20031;-95
2022/06/28 07:05:51;;;;;;;4.72;1.92;;;19.40;89.80;;;;;;2070168;28;20531;-96